sensor_id;sensor_type;location;lat;lon;timestamp;P1;durP1;ratioP1;P2;durP2;ratioP2
43431;SDS011;40365;41.866;21.942;2022-07-29T00:02:18;6.63;;;4.53;;
43431;SDS011;40365;41.866;21.942;2022-07-29T00:05:58;7.35;;;4.90;;
43431;SDS011;40365;41.866;21.942;2022-07-29T00:08:24;7.10;;;4.47;;
43431;SDS011;40365;41.866;21.942;2022-07-29T00:14:49;9.30;;;4.65;;
43431;SDS011;40365;41.866;21.942;2022-07-29T00:17:15;7.13;;;4.35;;
43431;SDS011;40365;41.866;21.942;2022-07-29T00:22:54;6.95;;;4.10;;
43431;SDS011;40365;41.866;21.942;2022-07-29T00:25:21;7.07;;;3.83;;
43431;SDS011;40365;41.866;21.942;2022-07-29T00:29:36;7.90;;;4.43;;
43431;SDS011;40365;41.866;21.942;2022-07-29T00:32:03;7.07;;;4.63;;
43431;SDS011;40365;41.866;21.942;2022-07-29T00:38:01;5.35;;;3.55;;
43431;SDS011;40365;41.866;21.942;2022-07-29T00:40:27;6.20;;;3.88;;
43431;SDS011;40365;41.866;21.942;2022-07-29T00:44:52;7.82;;;4.30;;
43431;SDS011;40365;41.866;21.942;2022-07-29T00:47:18;7.38;;;4.45;;
43431;SDS011;40365;41.866;21.942;2022-07-29T00:49:44;6.95;;;4.20;;
43431;SDS011;40365;41.866;21.942;2022-07-29T00:55:03;6.65;;;4.53;;
43431;SDS011;40365;41.866;21.942;2022-07-29T00:57:29;7.15;;;4.72;;
43431;SDS011;40365;41.866;21.942;2022-07-29T00:59:55;6.85;;;4.38;;
43431;SDS011;40365;41.866;21.942;2022-07-29T01:03:58;10.00;;;4.97;;
43431;SDS011;40365;41.866;21.942;2022-07-29T01:09:41;7.45;;;4.80;;
43431;SDS011;40365;41.866;21.942;2022-07-29T01:12:32;7.05;;;4.40;;
43431;SDS011;40365;41.866;21.942;2022-07-29T01:15:00;8.45;;;4.88;;
43431;SDS011;40365;41.866;21.942;2022-07-29T01:17:28;6.40;;;3.80;;
43431;SDS011;40365;41.866;21.942;2022-07-29T01:30:16;7.68;;;4.85;;
43431;SDS011;40365;41.866;21.942;2022-07-29T01:32:42;8.27;;;4.90;;
43431;SDS011;40365;41.866;21.942;2022-07-29T01:38:20;9.55;;;5.32;;
43431;SDS011;40365;41.866;21.942;2022-07-29T01:40:51;9.18;;;5.50;;
43431;SDS011;40365;41.866;21.942;2022-07-29T01:43:19;8.43;;;4.80;;
43431;SDS011;40365;41.866;21.942;2022-07-29T01:48:22;8.45;;;5.10;;
43431;SDS011;40365;41.866;21.942;2022-07-29T01:50:55;7.07;;;4.33;;
43431;SDS011;40365;41.866;21.942;2022-07-29T01:53:47;8.80;;;4.43;;
43431;SDS011;40365;41.866;21.942;2022-07-29T01:56:10;8.63;;;4.82;;
43431;SDS011;40365;41.866;21.942;2022-07-29T01:58:38;8.43;;;4.63;;
43431;SDS011;40365;41.866;21.942;2022-07-29T02:01:05;7.53;;;5.10;;
43431;SDS011;40365;41.866;21.942;2022-07-29T02:05:30;11.85;;;5.97;;
43431;SDS011;40365;41.866;21.942;2022-07-29T02:10:11;8.57;;;5.13;;
43431;SDS011;40365;41.866;21.942;2022-07-29T02:12:38;8.07;;;4.78;;
43431;SDS011;40365;41.866;21.942;2022-07-29T02:15:05;7.60;;;4.40;;
43431;SDS011;40365;41.866;21.942;2022-07-29T02:19:14;7.90;;;4.45;;
43431;SDS011;40365;41.866;21.942;2022-07-29T02:21:43;7.72;;;5.00;;
43431;SDS011;40365;41.866;21.942;2022-07-29T02:24:09;8.82;;;5.45;;
43431;SDS011;40365;41.866;21.942;2022-07-29T02:26:37;8.63;;;5.55;;
43431;SDS011;40365;41.866;21.942;2022-07-29T02:29:03;8.82;;;5.30;;
43431;SDS011;40365;41.866;21.942;2022-07-29T02:33:16;8.07;;;5.57;;
43431;SDS011;40365;41.866;21.942;2022-07-29T02:37:04;9.48;;;5.65;;
43431;SDS011;40365;41.866;21.942;2022-07-29T02:40:42;7.93;;;5.35;;
43431;SDS011;40365;41.866;21.942;2022-07-29T02:46:27;9.90;;;5.82;;
43431;SDS011;40365;41.866;21.942;2022-07-29T02:56:54;11.35;;;5.85;;
43431;SDS011;40365;41.866;21.942;2022-07-29T02:59:24;9.13;;;5.65;;
43431;SDS011;40365;41.866;21.942;2022-07-29T03:02:18;7.45;;;5.03;;
43431;SDS011;40365;41.866;21.942;2022-07-29T03:04:46;8.27;;;5.25;;
43431;SDS011;40365;41.866;21.942;2022-07-29T03:07:14;8.35;;;5.28;;
43431;SDS011;40365;41.866;21.942;2022-07-29T03:09:41;8.98;;;5.40;;
43431;SDS011;40365;41.866;21.942;2022-07-29T03:12:08;7.55;;;5.20;;
43431;SDS011;40365;41.866;21.942;2022-07-29T03:14:34;9.85;;;5.20;;
43431;SDS011;40365;41.866;21.942;2022-07-29T03:17:01;8.43;;;5.30;;
43431;SDS011;40365;41.866;21.942;2022-07-29T03:19:28;8.85;;;5.72;;
43431;SDS011;40365;41.866;21.942;2022-07-29T03:22:53;12.05;;;6.72;;
43431;SDS011;40365;41.866;21.942;2022-07-29T03:25:20;9.77;;;5.43;;
43431;SDS011;40365;41.866;21.942;2022-07-29T03:27:47;8.85;;;5.05;;
43431;SDS011;40365;41.866;21.942;2022-07-29T03:30:13;8.82;;;4.97;;
43431;SDS011;40365;41.866;21.942;2022-07-29T03:32:40;8.45;;;5.38;;
43431;SDS011;40365;41.866;21.942;2022-07-29T03:35:07;11.05;;;5.47;;
43431;SDS011;40365;41.866;21.942;2022-07-29T03:37:33;11.68;;;5.45;;
43431;SDS011;40365;41.866;21.942;2022-07-29T03:40:02;9.40;;;5.55;;
43431;SDS011;40365;41.866;21.942;2022-07-29T03:42:30;9.63;;;6.07;;
43431;SDS011;40365;41.866;21.942;2022-07-29T03:44:58;9.68;;;5.70;;
43431;SDS011;40365;41.866;21.942;2022-07-29T03:47:46;8.15;;;5.45;;
43431;SDS011;40365;41.866;21.942;2022-07-29T03:54:29;8.73;;;5.50;;
43431;SDS011;40365;41.866;21.942;2022-07-29T04:03:50;8.70;;;5.60;;
43431;SDS011;40365;41.866;21.942;2022-07-29T04:08:19;7.80;;;5.05;;
43431;SDS011;40365;41.866;21.942;2022-07-29T04:10:45;9.43;;;5.45;;
43431;SDS011;40365;41.866;21.942;2022-07-29T04:13:12;9.15;;;5.72;;
43431;SDS011;40365;41.866;21.942;2022-07-29T04:19:43;10.13;;;6.18;;
43431;SDS011;40365;41.866;21.942;2022-07-29T04:22:10;8.57;;;5.18;;
43431;SDS011;40365;41.866;21.942;2022-07-29T04:24:36;9.25;;;5.95;;
43431;SDS011;40365;41.866;21.942;2022-07-29T04:28:28;10.35;;;6.30;;
43431;SDS011;40365;41.866;21.942;2022-07-29T04:30:55;9.40;;;5.80;;
43431;SDS011;40365;41.866;21.942;2022-07-29T04:34:34;9.95;;;5.22;;
43431;SDS011;40365;41.866;21.942;2022-07-29T04:37:00;9.27;;;5.85;;
43431;SDS011;40365;41.866;21.942;2022-07-29T04:39:26;10.98;;;6.22;;
43431;SDS011;40365;41.866;21.942;2022-07-29T04:41:52;13.23;;;5.97;;
43431;SDS011;40365;41.866;21.942;2022-07-29T04:47:59;8.35;;;5.55;;
43431;SDS011;40365;41.866;21.942;2022-07-29T04:50:26;8.48;;;5.10;;
43431;SDS011;40365;41.866;21.942;2022-07-29T04:52:52;8.48;;;5.78;;
43431;SDS011;40365;41.866;21.942;2022-07-29T04:55:18;8.93;;;5.07;;
43431;SDS011;40365;41.866;21.942;2022-07-29T04:57:44;7.50;;;5.20;;
43431;SDS011;40365;41.866;21.942;2022-07-29T05:00:10;9.90;;;6.45;;
43431;SDS011;40365;41.866;21.942;2022-07-29T05:04:39;14.35;;;8.82;;
43431;SDS011;40365;41.866;21.942;2022-07-29T05:07:05;23.38;;;9.68;;
43431;SDS011;40365;41.866;21.942;2022-07-29T05:10:50;12.98;;;8.60;;
43431;SDS011;40365;41.866;21.942;2022-07-29T05:15:31;9.25;;;5.95;;
43431;SDS011;40365;41.866;21.942;2022-07-29T05:17:57;8.13;;;5.45;;
43431;SDS011;40365;41.866;21.942;2022-07-29T05:20:23;8.52;;;5.00;;
43431;SDS011;40365;41.866;21.942;2022-07-29T05:22:53;7.15;;;4.70;;
43431;SDS011;40365;41.866;21.942;2022-07-29T05:25:20;8.77;;;4.97;;
43431;SDS011;40365;41.866;21.942;2022-07-29T05:29:26;8.50;;;4.88;;
43431;SDS011;40365;41.866;21.942;2022-07-29T05:32:54;7.57;;;5.43;;
43431;SDS011;40365;41.866;21.942;2022-07-29T05:36:42;9.10;;;5.10;;
43431;SDS011;40365;41.866;21.942;2022-07-29T05:39:44;9.75;;;4.85;;
43431;SDS011;40365;41.866;21.942;2022-07-29T05:42:11;8.80;;;5.25;;
43431;SDS011;40365;41.866;21.942;2022-07-29T05:44:40;8.60;;;5.22;;
43431;SDS011;40365;41.866;21.942;2022-07-29T05:47:26;6.63;;;4.40;;
43431;SDS011;40365;41.866;21.942;2022-07-29T05:49:53;6.82;;;4.22;;
43431;SDS011;40365;41.866;21.942;2022-07-29T05:53:44;8.07;;;4.80;;
43431;SDS011;40365;41.866;21.942;2022-07-29T05:56:10;7.97;;;6.00;;
43431;SDS011;40365;41.866;21.942;2022-07-29T05:58:36;8.50;;;5.20;;
43431;SDS011;40365;41.866;21.942;2022-07-29T06:01:02;8.07;;;4.82;;
43431;SDS011;40365;41.866;21.942;2022-07-29T06:03:29;8.77;;;5.40;;
43431;SDS011;40365;41.866;21.942;2022-07-29T06:05:55;8.60;;;5.32;;
43431;SDS011;40365;41.866;21.942;2022-07-29T06:08:21;9.40;;;5.68;;
43431;SDS011;40365;41.866;21.942;2022-07-29T06:10:47;9.63;;;6.47;;
43431;SDS011;40365;41.866;21.942;2022-07-29T06:13:13;8.57;;;5.47;;
43431;SDS011;40365;41.866;21.942;2022-07-29T06:15:41;8.30;;;5.15;;
43431;SDS011;40365;41.866;21.942;2022-07-29T06:18:07;7.65;;;4.57;;
43431;SDS011;40365;41.866;21.942;2022-07-29T06:20:35;7.20;;;4.28;;
43431;SDS011;40365;41.866;21.942;2022-07-29T06:23:01;7.15;;;4.82;;
43431;SDS011;40365;41.866;21.942;2022-07-29T06:25:29;7.85;;;5.03;;
43431;SDS011;40365;41.866;21.942;2022-07-29T06:27:59;8.73;;;5.35;;
43431;SDS011;40365;41.866;21.942;2022-07-29T06:30:25;12.63;;;5.38;;
43431;SDS011;40365;41.866;21.942;2022-07-29T06:33:01;10.88;;;5.38;;
43431;SDS011;40365;41.866;21.942;2022-07-29T06:35:28;9.15;;;4.60;;
43431;SDS011;40365;41.866;21.942;2022-07-29T06:37:54;8.90;;;4.53;;
43431;SDS011;40365;41.866;21.942;2022-07-29T06:45:10;8.55;;;4.80;;
43431;SDS011;40365;41.866;21.942;2022-07-29T06:47:36;7.95;;;4.75;;
43431;SDS011;40365;41.866;21.942;2022-07-29T06:50:02;9.35;;;4.40;;
43431;SDS011;40365;41.866;21.942;2022-07-29T06:52:29;8.45;;;4.65;;
43431;SDS011;40365;41.866;21.942;2022-07-29T06:54:55;8.85;;;4.80;;
43431;SDS011;40365;41.866;21.942;2022-07-29T06:57:21;7.60;;;4.82;;
43431;SDS011;40365;41.866;21.942;2022-07-29T06:59:48;7.18;;;4.68;;
43431;SDS011;40365;41.866;21.942;2022-07-29T07:02:14;6.35;;;4.40;;
43431;SDS011;40365;41.866;21.942;2022-07-29T07:04:40;7.95;;;4.47;;
43431;SDS011;40365;41.866;21.942;2022-07-29T07:07:06;6.82;;;4.28;;
43431;SDS011;40365;41.866;21.942;2022-07-29T07:09:33;9.32;;;4.47;;
43431;SDS011;40365;41.866;21.942;2022-07-29T07:11:59;8.27;;;4.85;;
43431;SDS011;40365;41.866;21.942;2022-07-29T07:14:25;7.47;;;4.72;;
43431;SDS011;40365;41.866;21.942;2022-07-29T07:16:52;8.43;;;4.78;;
43431;SDS011;40365;41.866;21.942;2022-07-29T07:19:41;9.55;;;5.10;;
43431;SDS011;40365;41.866;21.942;2022-07-29T07:22:07;6.82;;;4.93;;
43431;SDS011;40365;41.866;21.942;2022-07-29T07:24:33;8.00;;;4.68;;
43431;SDS011;40365;41.866;21.942;2022-07-29T07:27:00;9.88;;;4.97;;
43431;SDS011;40365;41.866;21.942;2022-07-29T07:29:26;6.85;;;4.22;;
43431;SDS011;40365;41.866;21.942;2022-07-29T07:31:53;8.43;;;4.97;;
43431;SDS011;40365;41.866;21.942;2022-07-29T07:34:20;6.60;;;4.32;;
43431;SDS011;40365;41.866;21.942;2022-07-29T07:36:46;6.57;;;4.40;;
43431;SDS011;40365;41.866;21.942;2022-07-29T07:40:58;6.97;;;4.03;;
43431;SDS011;40365;41.866;21.942;2022-07-29T07:43:24;6.60;;;4.07;;
43431;SDS011;40365;41.866;21.942;2022-07-29T07:45:50;6.05;;;3.58;;
43431;SDS011;40365;41.866;21.942;2022-07-29T07:48:33;8.95;;;3.67;;
43431;SDS011;40365;41.866;21.942;2022-07-29T07:51:00;5.82;;;3.70;;
43431;SDS011;40365;41.866;21.942;2022-07-29T07:53:26;7.00;;;3.95;;
43431;SDS011;40365;41.866;21.942;2022-07-29T07:55:54;7.55;;;4.13;;
43431;SDS011;40365;41.866;21.942;2022-07-29T07:58:20;6.65;;;3.92;;
43431;SDS011;40365;41.866;21.942;2022-07-29T08:01:51;7.97;;;4.35;;
43431;SDS011;40365;41.866;21.942;2022-07-29T08:04:18;6.32;;;4.03;;
43431;SDS011;40365;41.866;21.942;2022-07-29T08:06:44;8.05;;;4.60;;
43431;SDS011;40365;41.866;21.942;2022-07-29T08:09:10;8.02;;;5.22;;
43431;SDS011;40365;41.866;21.942;2022-07-29T08:11:36;15.55;;;5.25;;
43431;SDS011;40365;41.866;21.942;2022-07-29T08:14:57;8.07;;;4.30;;
43431;SDS011;40365;41.866;21.942;2022-07-29T08:20:58;6.88;;;4.15;;
43431;SDS011;40365;41.866;21.942;2022-07-29T08:23:24;7.25;;;4.53;;
43431;SDS011;40365;41.866;21.942;2022-07-29T08:25:52;8.25;;;4.68;;
43431;SDS011;40365;41.866;21.942;2022-07-29T08:28:18;7.07;;;4.55;;
43431;SDS011;40365;41.866;21.942;2022-07-29T08:30:44;6.65;;;4.18;;
43431;SDS011;40365;41.866;21.942;2022-07-29T08:33:10;7.70;;;4.78;;
43431;SDS011;40365;41.866;21.942;2022-07-29T08:35:36;7.25;;;4.72;;
43431;SDS011;40365;41.866;21.942;2022-07-29T08:38:54;10.05;;;5.90;;
43431;SDS011;40365;41.866;21.942;2022-07-29T08:41:20;7.22;;;4.22;;
43431;SDS011;40365;41.866;21.942;2022-07-29T08:43:47;7.38;;;4.60;;
43431;SDS011;40365;41.866;21.942;2022-07-29T08:46:13;7.43;;;5.05;;
43431;SDS011;40365;41.866;21.942;2022-07-29T08:48:41;7.60;;;4.60;;
43431;SDS011;40365;41.866;21.942;2022-07-29T08:51:07;7.22;;;4.93;;
43431;SDS011;40365;41.866;21.942;2022-07-29T08:53:33;8.90;;;4.70;;
43431;SDS011;40365;41.866;21.942;2022-07-29T08:56:03;7.15;;;4.88;;
43431;SDS011;40365;41.866;21.942;2022-07-29T08:58:31;11.30;;;5.18;;
43431;SDS011;40365;41.866;21.942;2022-07-29T09:00:58;6.50;;;4.50;;
43431;SDS011;40365;41.866;21.942;2022-07-29T09:03:30;7.30;;;4.43;;
43431;SDS011;40365;41.866;21.942;2022-07-29T09:05:58;6.60;;;4.20;;
43431;SDS011;40365;41.866;21.942;2022-07-29T09:08:24;8.05;;;5.18;;
43431;SDS011;40365;41.866;21.942;2022-07-29T09:10:50;8.05;;;4.65;;
43431;SDS011;40365;41.866;21.942;2022-07-29T09:13:17;8.45;;;4.93;;
43431;SDS011;40365;41.866;21.942;2022-07-29T09:15:43;6.60;;;3.97;;
43431;SDS011;40365;41.866;21.942;2022-07-29T09:18:10;6.18;;;4.00;;
43431;SDS011;40365;41.866;21.942;2022-07-29T09:20:36;6.05;;;4.10;;
43431;SDS011;40365;41.866;21.942;2022-07-29T09:23:37;7.50;;;4.80;;
43431;SDS011;40365;41.866;21.942;2022-07-29T09:26:05;8.02;;;4.57;;
43431;SDS011;40365;41.866;21.942;2022-07-29T09:28:31;6.07;;;4.20;;
43431;SDS011;40365;41.866;21.942;2022-07-29T09:30:57;6.75;;;4.28;;
43431;SDS011;40365;41.866;21.942;2022-07-29T09:33:24;8.05;;;4.40;;
43431;SDS011;40365;41.866;21.942;2022-07-29T09:36:03;8.27;;;4.55;;
43431;SDS011;40365;41.866;21.942;2022-07-29T09:38:30;6.82;;;4.63;;
43431;SDS011;40365;41.866;21.942;2022-07-29T09:40:57;8.32;;;4.38;;
43431;SDS011;40365;41.866;21.942;2022-07-29T09:43:23;7.15;;;4.60;;
43431;SDS011;40365;41.866;21.942;2022-07-29T09:45:49;7.75;;;5.00;;
43431;SDS011;40365;41.866;21.942;2022-07-29T09:48:22;7.63;;;5.15;;
43431;SDS011;40365;41.866;21.942;2022-07-29T09:50:49;11.25;;;5.70;;
43431;SDS011;40365;41.866;21.942;2022-07-29T09:53:37;7.30;;;4.80;;
43431;SDS011;40365;41.866;21.942;2022-07-29T09:56:02;7.45;;;4.90;;
43431;SDS011;40365;41.866;21.942;2022-07-29T09:58:29;6.68;;;4.78;;
43431;SDS011;40365;41.866;21.942;2022-07-29T10:00:55;8.23;;;4.70;;
43431;SDS011;40365;41.866;21.942;2022-07-29T10:03:22;8.38;;;5.28;;
43431;SDS011;40365;41.866;21.942;2022-07-29T10:06:04;7.47;;;5.15;;
43431;SDS011;40365;41.866;21.942;2022-07-29T10:08:30;9.05;;;5.53;;
43431;SDS011;40365;41.866;21.942;2022-07-29T10:11:18;7.20;;;5.05;;
43431;SDS011;40365;41.866;21.942;2022-07-29T10:13:43;7.50;;;4.63;;
43431;SDS011;40365;41.866;21.942;2022-07-29T10:16:10;7.18;;;4.82;;
43431;SDS011;40365;41.866;21.942;2022-07-29T10:18:40;7.25;;;4.95;;
43431;SDS011;40365;41.866;21.942;2022-07-29T10:21:06;8.75;;;5.70;;
43431;SDS011;40365;41.866;21.942;2022-07-29T10:23:32;8.45;;;5.15;;
43431;SDS011;40365;41.866;21.942;2022-07-29T10:25:59;7.65;;;5.32;;
43431;SDS011;40365;41.866;21.942;2022-07-29T10:28:25;8.52;;;5.75;;
43431;SDS011;40365;41.866;21.942;2022-07-29T10:30:52;8.45;;;6.35;;
43431;SDS011;40365;41.866;21.942;2022-07-29T10:33:35;9.20;;;6.22;;
43431;SDS011;40365;41.866;21.942;2022-07-29T10:44:16;7.28;;;5.60;;
43431;SDS011;40365;41.866;21.942;2022-07-29T10:46:42;9.43;;;6.38;;
43431;SDS011;40365;41.866;21.942;2022-07-29T10:49:09;7.60;;;5.90;;
43431;SDS011;40365;41.866;21.942;2022-07-29T10:57:15;8.13;;;6.10;;
43431;SDS011;40365;41.866;21.942;2022-07-29T10:59:45;10.10;;;6.07;;
43431;SDS011;40365;41.866;21.942;2022-07-29T11:02:40;8.38;;;5.90;;
43431;SDS011;40365;41.866;21.942;2022-07-29T11:05:19;7.55;;;5.18;;
43431;SDS011;40365;41.866;21.942;2022-07-29T11:10:31;10.82;;;5.97;;
43431;SDS011;40365;41.866;21.942;2022-07-29T11:12:57;7.00;;;4.72;;
43431;SDS011;40365;41.866;21.942;2022-07-29T11:15:23;8.35;;;5.57;;
43431;SDS011;40365;41.866;21.942;2022-07-29T11:20:42;9.00;;;6.15;;
43431;SDS011;40365;41.866;21.942;2022-07-29T11:31:37;7.57;;;5.50;;
43431;SDS011;40365;41.866;21.942;2022-07-29T11:39:30;7.00;;;5.47;;
43431;SDS011;40365;41.866;21.942;2022-07-29T11:44:57;8.52;;;6.00;;
43431;SDS011;40365;41.866;21.942;2022-07-29T11:47:25;8.38;;;5.20;;
43431;SDS011;40365;41.866;21.942;2022-07-29T11:49:52;9.93;;;5.97;;
43431;SDS011;40365;41.866;21.942;2022-07-29T11:52:19;8.23;;;5.80;;
43431;SDS011;40365;41.866;21.942;2022-07-29T11:54:47;8.00;;;5.60;;
43431;SDS011;40365;41.866;21.942;2022-07-29T11:57:14;7.32;;;4.93;;
43431;SDS011;40365;41.866;21.942;2022-07-29T11:59:44;9.90;;;5.72;;
43431;SDS011;40365;41.866;21.942;2022-07-29T12:02:10;8.25;;;5.95;;
43431;SDS011;40365;41.866;21.942;2022-07-29T12:04:56;8.15;;;5.32;;
43431;SDS011;40365;41.866;21.942;2022-07-29T12:07:31;7.95;;;5.45;;
43431;SDS011;40365;41.866;21.942;2022-07-29T12:09:57;7.93;;;5.57;;
43431;SDS011;40365;41.866;21.942;2022-07-29T12:12:23;7.85;;;5.00;;
43431;SDS011;40365;41.866;21.942;2022-07-29T12:14:50;7.40;;;5.32;;
43431;SDS011;40365;41.866;21.942;2022-07-29T12:19:58;7.35;;;4.55;;
43431;SDS011;40365;41.866;21.942;2022-07-29T12:22:28;7.38;;;5.03;;
43431;SDS011;40365;41.866;21.942;2022-07-29T12:24:54;8.85;;;4.75;;
43431;SDS011;40365;41.866;21.942;2022-07-29T12:27:21;7.07;;;5.22;;
43431;SDS011;40365;41.866;21.942;2022-07-29T12:29:57;6.38;;;4.75;;
43431;SDS011;40365;41.866;21.942;2022-07-29T12:32:35;5.53;;;4.25;;
43431;SDS011;40365;41.866;21.942;2022-07-29T12:35:02;11.80;;;4.90;;
43431;SDS011;40365;41.866;21.942;2022-07-29T12:37:29;6.38;;;4.35;;
43431;SDS011;40365;41.866;21.942;2022-07-29T12:39:55;6.22;;;4.38;;
43431;SDS011;40365;41.866;21.942;2022-07-29T12:42:21;6.60;;;4.78;;
43431;SDS011;40365;41.866;21.942;2022-07-29T12:44:48;6.13;;;4.07;;
43431;SDS011;40365;41.866;21.942;2022-07-29T12:47:15;5.97;;;4.38;;
43431;SDS011;40365;41.866;21.942;2022-07-29T12:49:43;7.35;;;4.45;;
43431;SDS011;40365;41.866;21.942;2022-07-29T12:52:28;7.57;;;4.68;;
43431;SDS011;40365;41.866;21.942;2022-07-29T12:54:55;7.38;;;4.90;;
43431;SDS011;40365;41.866;21.942;2022-07-29T12:57:21;6.00;;;4.60;;
43431;SDS011;40365;41.866;21.942;2022-07-29T13:00:08;7.30;;;4.55;;
43431;SDS011;40365;41.866;21.942;2022-07-29T13:02:35;5.95;;;4.47;;
43431;SDS011;40365;41.866;21.942;2022-07-29T13:05:02;7.43;;;5.20;;
43431;SDS011;40365;41.866;21.942;2022-07-29T13:07:29;6.35;;;4.28;;
43431;SDS011;40365;41.866;21.942;2022-07-29T13:10:10;5.78;;;3.88;;
43431;SDS011;40365;41.866;21.942;2022-07-29T13:12:37;5.55;;;4.07;;
43431;SDS011;40365;41.866;21.942;2022-07-29T13:15:13;7.53;;;4.90;;
43431;SDS011;40365;41.866;21.942;2022-07-29T13:17:40;6.50;;;4.30;;
43431;SDS011;40365;41.866;21.942;2022-07-29T13:20:08;7.00;;;4.35;;
43431;SDS011;40365;41.866;21.942;2022-07-29T13:22:37;6.38;;;3.97;;
43431;SDS011;40365;41.866;21.942;2022-07-29T13:25:04;5.25;;;3.85;;
43431;SDS011;40365;41.866;21.942;2022-07-29T13:27:36;6.43;;;3.75;;
43431;SDS011;40365;41.866;21.942;2022-07-29T13:30:06;5.90;;;3.92;;
43431;SDS011;40365;41.866;21.942;2022-07-29T13:32:32;5.25;;;3.70;;
43431;SDS011;40365;41.866;21.942;2022-07-29T13:35:03;6.22;;;3.55;;
43431;SDS011;40365;41.866;21.942;2022-07-29T13:37:30;5.95;;;3.85;;
43431;SDS011;40365;41.866;21.942;2022-07-29T13:39:57;5.18;;;3.70;;
43431;SDS011;40365;41.866;21.942;2022-07-29T13:42:24;4.80;;;3.67;;
43431;SDS011;40365;41.866;21.942;2022-07-29T13:44:51;6.10;;;3.88;;
43431;SDS011;40365;41.866;21.942;2022-07-29T13:47:18;5.18;;;3.38;;
43431;SDS011;40365;41.866;21.942;2022-07-29T13:49:45;6.78;;;3.40;;
43431;SDS011;40365;41.866;21.942;2022-07-29T13:52:11;6.07;;;4.30;;
43431;SDS011;40365;41.866;21.942;2022-07-29T13:54:37;5.35;;;3.83;;
43431;SDS011;40365;41.866;21.942;2022-07-29T13:57:04;4.25;;;3.17;;
43431;SDS011;40365;41.866;21.942;2022-07-29T13:59:30;5.65;;;3.97;;
43431;SDS011;40365;41.866;21.942;2022-07-29T14:01:56;9.13;;;3.75;;
43431;SDS011;40365;41.866;21.942;2022-07-29T14:04:22;5.03;;;3.40;;
43431;SDS011;40365;41.866;21.942;2022-07-29T14:06:49;5.22;;;2.92;;
43431;SDS011;40365;41.866;21.942;2022-07-29T14:09:15;5.35;;;3.58;;
43431;SDS011;40365;41.866;21.942;2022-07-29T14:11:41;4.93;;;3.10;;
43431;SDS011;40365;41.866;21.942;2022-07-29T14:14:08;4.63;;;3.13;;
43431;SDS011;40365;41.866;21.942;2022-07-29T14:16:35;4.85;;;3.53;;
43431;SDS011;40365;41.866;21.942;2022-07-29T14:19:02;4.47;;;3.25;;
43431;SDS011;40365;41.866;21.942;2022-07-29T14:21:28;4.80;;;3.25;;
43431;SDS011;40365;41.866;21.942;2022-07-29T14:23:55;4.80;;;3.40;;
43431;SDS011;40365;41.866;21.942;2022-07-29T14:26:21;4.30;;;3.00;;
43431;SDS011;40365;41.866;21.942;2022-07-29T14:28:48;5.32;;;3.58;;
43431;SDS011;40365;41.866;21.942;2022-07-29T14:31:14;5.03;;;3.50;;
43431;SDS011;40365;41.866;21.942;2022-07-29T14:33:41;3.70;;;2.83;;
43431;SDS011;40365;41.866;21.942;2022-07-29T14:36:07;4.32;;;3.15;;
43431;SDS011;40365;41.866;21.942;2022-07-29T14:38:34;3.60;;;2.78;;
43431;SDS011;40365;41.866;21.942;2022-07-29T14:41:00;4.10;;;3.10;;
43431;SDS011;40365;41.866;21.942;2022-07-29T14:43:27;5.22;;;3.40;;
43431;SDS011;40365;41.866;21.942;2022-07-29T14:45:53;5.32;;;3.45;;
43431;SDS011;40365;41.866;21.942;2022-07-29T14:48:19;4.63;;;2.90;;
43431;SDS011;40365;41.866;21.942;2022-07-29T14:50:45;5.47;;;3.15;;
43431;SDS011;40365;41.866;21.942;2022-07-29T14:53:11;5.13;;;3.17;;
43431;SDS011;40365;41.866;21.942;2022-07-29T14:55:38;3.50;;;3.08;;
43431;SDS011;40365;41.866;21.942;2022-07-29T14:58:05;4.13;;;3.20;;
43431;SDS011;40365;41.866;21.942;2022-07-29T15:00:31;3.72;;;2.80;;
43431;SDS011;40365;41.866;21.942;2022-07-29T15:02:59;4.05;;;3.30;;
43431;SDS011;40365;41.866;21.942;2022-07-29T15:05:25;4.18;;;3.13;;
43431;SDS011;40365;41.866;21.942;2022-07-29T15:07:51;4.53;;;3.15;;
43431;SDS011;40365;41.866;21.942;2022-07-29T15:10:18;4.10;;;2.60;;
43431;SDS011;40365;41.866;21.942;2022-07-29T15:12:44;4.65;;;3.13;;
43431;SDS011;40365;41.866;21.942;2022-07-29T15:15:10;3.25;;;2.60;;
43431;SDS011;40365;41.866;21.942;2022-07-29T15:17:36;5.57;;;2.80;;
43431;SDS011;40365;41.866;21.942;2022-07-29T15:20:03;6.78;;;3.03;;
43431;SDS011;40365;41.866;21.942;2022-07-29T15:22:29;4.75;;;2.97;;
43431;SDS011;40365;41.866;21.942;2022-07-29T15:24:55;3.22;;;2.80;;
43431;SDS011;40365;41.866;21.942;2022-07-29T15:27:21;3.60;;;2.67;;
43431;SDS011;40365;41.866;21.942;2022-07-29T15:29:48;4.18;;;2.85;;
43431;SDS011;40365;41.866;21.942;2022-07-29T15:32:14;3.58;;;2.92;;
43431;SDS011;40365;41.866;21.942;2022-07-29T15:34:40;4.45;;;2.80;;
43431;SDS011;40365;41.866;21.942;2022-07-29T15:37:06;6.05;;;3.20;;
43431;SDS011;40365;41.866;21.942;2022-07-29T15:39:32;4.30;;;2.90;;
43431;SDS011;40365;41.866;21.942;2022-07-29T15:41:58;5.00;;;2.90;;
43431;SDS011;40365;41.866;21.942;2022-07-29T15:44:25;3.95;;;2.90;;
43431;SDS011;40365;41.866;21.942;2022-07-29T15:46:51;4.00;;;3.17;;
43431;SDS011;40365;41.866;21.942;2022-07-29T15:49:33;4.97;;;2.90;;
43431;SDS011;40365;41.866;21.942;2022-07-29T15:52:04;4.43;;;2.83;;
43431;SDS011;40365;41.866;21.942;2022-07-29T15:54:34;4.25;;;2.70;;
43431;SDS011;40365;41.866;21.942;2022-07-29T15:57:00;5.03;;;3.50;;
43431;SDS011;40365;41.866;21.942;2022-07-29T15:59:27;5.38;;;3.28;;
43431;SDS011;40365;41.866;21.942;2022-07-29T16:01:53;5.68;;;3.40;;
43431;SDS011;40365;41.866;21.942;2022-07-29T16:04:20;4.53;;;2.88;;
43431;SDS011;40365;41.866;21.942;2022-07-29T16:06:46;4.50;;;3.38;;
43431;SDS011;40365;41.866;21.942;2022-07-29T16:09:13;4.93;;;3.10;;
43431;SDS011;40365;41.866;21.942;2022-07-29T16:11:39;4.90;;;3.50;;
43431;SDS011;40365;41.866;21.942;2022-07-29T16:14:05;5.57;;;3.38;;
43431;SDS011;40365;41.866;21.942;2022-07-29T16:16:32;6.22;;;3.35;;
43431;SDS011;40365;41.866;21.942;2022-07-29T16:18:58;5.55;;;3.38;;
43431;SDS011;40365;41.866;21.942;2022-07-29T16:21:24;6.40;;;3.42;;
43431;SDS011;40365;41.866;21.942;2022-07-29T16:23:50;4.43;;;3.33;;
43431;SDS011;40365;41.866;21.942;2022-07-29T16:26:16;4.53;;;3.35;;
43431;SDS011;40365;41.866;21.942;2022-07-29T16:28:43;4.85;;;3.22;;
43431;SDS011;40365;41.866;21.942;2022-07-29T16:31:09;5.25;;;3.08;;
43431;SDS011;40365;41.866;21.942;2022-07-29T16:33:35;5.10;;;3.22;;
43431;SDS011;40365;41.866;21.942;2022-07-29T16:36:01;5.32;;;3.65;;
43431;SDS011;40365;41.866;21.942;2022-07-29T16:38:27;5.20;;;3.15;;
43431;SDS011;40365;41.866;21.942;2022-07-29T16:40:53;5.72;;;3.60;;
43431;SDS011;40365;41.866;21.942;2022-07-29T16:43:19;4.53;;;3.08;;
43431;SDS011;40365;41.866;21.942;2022-07-29T16:45:45;5.57;;;3.45;;
43431;SDS011;40365;41.866;21.942;2022-07-29T16:48:15;5.88;;;3.85;;
43431;SDS011;40365;41.866;21.942;2022-07-29T16:50:41;6.72;;;4.05;;
43431;SDS011;40365;41.866;21.942;2022-07-29T16:53:07;7.15;;;4.65;;
43431;SDS011;40365;41.866;21.942;2022-07-29T16:55:34;7.57;;;4.72;;
43431;SDS011;40365;41.866;21.942;2022-07-29T16:58:00;6.32;;;4.47;;
43431;SDS011;40365;41.866;21.942;2022-07-29T17:00:26;8.02;;;4.93;;
43431;SDS011;40365;41.866;21.942;2022-07-29T17:02:52;7.50;;;4.55;;
43431;SDS011;40365;41.866;21.942;2022-07-29T17:05:18;6.45;;;4.22;;
43431;SDS011;40365;41.866;21.942;2022-07-29T17:07:44;6.53;;;4.47;;